Skip to main content

Luzim

ID 1210657 · 41.1459, -8.2490 map

Latest reading · 2026-05-09 19:00 (Europe/Lisbon)

Temperature
10.9 °C
Humidity
92 %
Pressure
Precipitation
12.5 mm
Radiation
95 W/m²
Wind speed
6.5 km/h
Wind direction
SW · South-west

24-hour history

Time (Europe/Lisbon) Temp Humidity Pressure Rain Wind Dir
2026-05-09 19:00 10.9 °C 92 % 12.5 mm 6.5 km/h SW
2026-05-09 18:00 12.5 °C 93 % 0.2 mm 4.3 km/h S
2026-05-09 17:00 12.9 °C 94 % 1.1 mm 4.3 km/h S
2026-05-09 16:00 12.8 °C 89 % 1.0 mm 2.2 km/h N
2026-05-09 15:00 15.7 °C 68 % 0.1 mm 8.3 km/h S
2026-05-09 14:00 15.1 °C 67 % 0.0 mm 11.5 km/h SE
2026-05-09 13:00 14.3 °C 75 % 0.0 mm 13.3 km/h SE
2026-05-09 12:00 12.6 °C 84 % 0.7 mm 7.6 km/h SE
2026-05-09 11:00 13.3 °C 76 % 0.2 mm 6.1 km/h SW
2026-05-09 10:00 13.6 °C 74 % 0.1 mm 9.4 km/h SE
2026-05-09 09:00 13.7 °C 71 % 0.0 mm 8.6 km/h E
2026-05-09 08:00 13.7 °C 67 % 0.0 mm 6.5 km/h E
2026-05-09 07:00 12.1 °C 70 % 0.0 mm 7.6 km/h S
2026-05-09 06:00 12.0 °C 71 % 0.0 mm 8.3 km/h S
2026-05-09 05:00 11.7 °C 76 % 0.0 mm 4.7 km/h S
2026-05-09 04:00 12.1 °C 74 % 0.0 mm 4.0 km/h E
2026-05-09 03:00 10.5 °C 91 % 0.0 mm 4.0 km/h S
2026-05-09 02:00 10.7 °C 92 % 0.3 mm 3.6 km/h N
2026-05-09 01:00 12.7 °C 72 % 0.4 mm 4.3 km/h SW
2026-05-09 00:00 12.7 °C 69 % 0.0 mm 5.0 km/h NE
2026-05-08 23:00 12.7 °C 70 % 0.0 mm 5.4 km/h SE
2026-05-08 22:00 12.3 °C 71 % 0.0 mm 9.0 km/h NE
2026-05-08 21:00 12.9 °C 71 % 0.0 mm 4.0 km/h E
2026-05-08 20:00 14.7 °C 61 % 0.0 mm 5.8 km/h NE